Time;durP1;ratioP1;P1;durP2;ratioP2;P2;SDS_P1;SDS_P2;PMS_P1;PMS_P2;Temp;Humidity;BMP_temperature;BMP_pressure;BME280_temperature;BME280_humidity;BME280_pressure;Samples;Min_cycle;Max_cycle;Signal;HPM_P1;HPM_P2
2022/05/29 00:00:46;;;;;;;3.67;2.27;;;16.50;41.20;;;;;;5073112;28;20226;-78
2022/05/29 00:03:13;;;;;;;3.53;2.10;;;16.40;41.80;;;;;;5068635;28;20211;-79
2022/05/29 00:05:40;;;;;;;4.67;2.50;;;16.40;41.20;;;;;;5051519;28;20187;-79
2022/05/29 00:08:07;;;;;;;5.87;2.03;;;16.30;41.90;;;;;;5072968;28;20188;-81
2022/05/29 00:10:37;;;;;;;6.10;2.40;;;16.20;41.70;;;;;;5069534;28;20210;-78
2022/05/29 00:13:03;;;;;;;3.87;2.30;;;16.20;41.80;;;;;;5069208;28;20222;-79
2022/05/29 00:15:28;;;;;;;3.60;2.33;;;16.20;42.40;;;;;;5072658;28;20194;-81
2022/05/29 00:17:54;;;;;;;4.53;2.40;;;16.30;42.40;;;;;;5070913;28;20214;-79
2022/05/29 00:20:20;;;;;;;2.90;2.30;;;16.50;43.90;;;;;;5069011;28;20226;-81
2022/05/29 00:22:46;;;;;;;5.27;2.30;;;16.60;42.20;;;;;;5064468;28;20192;-81
2022/05/29 00:25:12;;;;;;;4.80;2.60;;;16.50;42.20;;;;;;5063708;28;20192;-80
2022/05/29 00:27:38;;;;;;;8.07;2.70;;;16.50;42.60;;;;;;5070414;28;20183;-80
2022/05/29 00:30:07;;;;;;;3.93;2.50;;;16.50;42.60;;;;;;5069851;28;20303;-80
2022/05/29 00:32:33;;;;;;;2.63;1.97;;;16.30;43.20;;;;;;5072398;28;20190;-80
2022/05/29 00:34:59;;;;;;;2.43;1.90;;;16.20;43.30;;;;;;5064228;28;20273;-81
2022/05/29 00:37:25;;;;;;;4.37;2.47;;;16.20;44.00;;;;;;5063035;28;20216;-80
2022/05/29 00:39:53;;;;;;;3.37;2.53;;;16.30;43.40;;;;;;5065902;28;20218;-80
2022/05/29 00:42:22;;;;;;;2.53;1.93;;;16.20;44.00;;;;;;5061261;28;20195;-81
2022/05/29 00:44:49;;;;;;;2.37;2.17;;;16.00;44.00;;;;;;5065545;28;20551;-80
2022/05/29 00:47:16;;;;;;;3.50;2.60;;;15.90;44.30;;;;;;5059701;28;20375;-80
2022/05/29 00:49:43;;;;;;;3.57;2.50;;;15.80;44.80;;;;;;5066961;28;20223;-80
2022/05/29 00:52:21;;;;;;;5.37;3.00;;;15.80;45.30;;;;;;5068050;28;20188;-80
2022/05/29 00:55:03;;;;;;;7.37;2.63;;;15.80;45.60;;;;;;5071279;28;20202;-81
2022/05/29 00:57:29;;;;;;;4.43;2.50;;;15.50;46.60;;;;;;5074020;28;20211;-80
2022/05/29 01:00:00;;;;;;;4.27;2.43;;;15.40;48.20;;;;;;5075067;28;20210;-81
2022/05/29 01:02:26;;;;;;;5.37;2.43;;;15.40;49.20;;;;;;5064448;28;20183;-80
2022/05/29 01:04:52;;;;;;;4.00;2.33;;;15.30;49.90;;;;;;5069926;28;20189;-80
2022/05/29 01:07:20;;;;;;;6.77;2.87;;;15.30;50.50;;;;;;5059915;28;20264;-81
2022/05/29 01:09:48;;;;;;;5.67;2.63;;;15.30;50.70;;;;;;5074529;28;20222;-82
2022/05/29 01:12:31;;;;;;;4.27;2.37;;;15.30;51.10;;;;;;5066611;28;20557;-81
2022/05/29 01:15:15;;;;;;;4.00;2.40;;;15.20;51.40;;;;;;5066618;28;20218;-80
2022/05/29 01:17:40;;;;;;;4.53;2.40;;;15.10;54.20;;;;;;5070367;28;20205;-80
2022/05/29 01:20:43;;;;;;;6.47;2.90;;;15.10;55.00;;;;;;5070601;28;20222;-81
2022/05/29 01:23:23;;;;;;;3.97;2.47;;;15.20;55.80;;;;;;5074603;28;20654;-81
2022/05/29 01:26:12;;;;;;;4.57;2.53;;;15.30;53.80;;;;;;5074081;28;20217;-80
2022/05/29 01:28:54;;;;;;;8.07;2.50;;;15.30;54.60;;;;;;5017057;28;20207;-80
2022/05/29 01:31:29;;;;;;;4.10;2.43;;;15.40;53.30;;;;;;5064599;28;20710;-79
2022/05/29 01:34:13;;;;;;;5.63;2.57;;;15.60;53.20;;;;;;5074479;28;20217;-80
2022/05/29 01:37:00;;;;;;;3.00;2.33;;;15.60;51.80;;;;;;5049066;28;20843;-80
2022/05/29 01:40:06;;;;;;;4.77;2.77;;;15.60;51.10;;;;;;5066342;28;20192;-80
2022/05/29 01:42:40;;;;;;;4.33;2.43;;;15.60;51.00;;;;;;5072127;28;20669;-79
2022/05/29 01:45:22;;;;;;;8.97;2.97;;;15.70;50.30;;;;;;5075294;28;20175;-80
2022/05/29 01:48:00;;;;;;;5.27;2.37;;;15.50;50.30;;;;;;5073825;28;20203;-80
2022/05/29 01:50:43;;;;;;;4.43;2.50;;;15.40;50.10;;;;;;5077083;28;20500;-80
2022/05/29 01:53:17;;;;;;;4.60;2.60;;;15.30;50.30;;;;;;5077159;28;20532;-80
2022/05/29 01:55:53;;;;;;;3.57;2.60;;;15.20;51.50;;;;;;5072447;28;20181;-79
2022/05/29 01:58:38;;;;;;;6.50;2.77;;;15.30;51.00;;;;;;5058713;28;20742;-80
2022/05/29 02:01:07;;;;;;;6.30;2.40;;;15.20;50.00;;;;;;5058278;28;20205;-79
2022/05/29 02:03:55;;;;;;;4.10;2.13;;;15.10;50.80;;;;;;5074482;28;20243;-79
2022/05/29 02:07:47;;;;;;;6.17;2.50;;;15.10;51.30;;;;;;5075553;28;20283;-82
2022/05/29 02:09:22;;;;;;;4.03;2.47;;;15.10;51.00;;;;;;5076858;28;20195;-80
2022/05/29 02:11:52;;;;;;;6.93;2.70;;;14.90;51.40;;;;;;5062138;28;20192;-80
2022/05/29 02:14:24;;;;;;;4.87;2.20;;;15.10;51.80;;;;;;5039662;28;20172;-80
2022/05/29 02:16:55;;;;;;;4.70;2.30;;;15.00;51.90;;;;;;5075287;28;20185;-81
2022/05/29 02:19:27;;;;;;;4.83;2.67;;;15.10;50.80;;;;;;5055990;28;20635;-81
2022/05/29 02:22:01;;;;;;;3.43;2.30;;;14.90;51.30;;;;;;5071026;28;20180;-81
2022/05/29 02:24:39;;;;;;;3.90;2.60;;;14.90;50.80;;;;;;5072338;28;20210;-81
2022/05/29 02:27:15;;;;;;;4.03;2.40;;;14.70;50.90;;;;;;5059662;28;20190;-79
2022/05/29 02:29:42;;;;;;;5.33;2.80;;;14.90;51.70;;;;;;5058406;28;20395;-79
2022/05/29 02:32:21;;;;;;;5.83;2.77;;;14.90;50.80;;;;;;5061641;28;20239;-80
2022/05/29 02:35:25;;;;;;;3.20;2.60;;;14.80;50.70;;;;;;5071617;28;20331;-79
2022/05/29 02:37:51;;;;;;;5.53;2.60;;;14.60;51.40;;;;;;5063466;28;20663;-79
2022/05/29 02:40:24;;;;;;;5.13;2.57;;;14.60;51.40;;;;;;5071296;28;20202;-79
2022/05/29 02:43:15;;;;;;;3.53;2.60;;;14.40;51.70;;;;;;5059491;28;20176;-79
2022/05/29 02:46:24;;;;;;;5.03;2.30;;;14.20;52.00;;;;;;5067904;28;20229;-79
2022/05/29 02:49:13;;;;;;;5.17;2.73;;;14.10;52.80;;;;;;5002843;28;20194;-78
2022/05/29 02:51:54;;;;;;;3.47;2.77;;;14.00;53.00;;;;;;5062853;28;20186;-80
2022/05/29 02:54:30;;;;;;;3.97;2.57;;;14.00;53.70;;;;;;5060145;28;20270;-79
2022/05/29 02:56:58;;;;;;;5.73;2.53;;;14.00;53.60;;;;;;5062862;28;20268;-79
2022/05/29 02:59:31;;;;;;;9.30;2.80;;;14.10;53.10;;;;;;5069602;28;20203;-79
2022/05/29 03:02:05;;;;;;;5.77;3.00;;;14.10;53.50;;;;;;5048799;28;20792;-79
2022/05/29 03:04:51;;;;;;;5.10;3.00;;;14.00;53.80;;;;;;5058986;28;20235;-79
2022/05/29 03:07:54;;;;;;;8.90;2.70;;;13.90;53.80;;;;;;5069023;28;20756;-81
2022/05/29 03:10:25;;;;;;;5.03;2.77;;;13.80;54.30;;;;;;5069097;28;20207;-79
2022/05/29 03:13:13;;;;;;;3.93;2.67;;;13.80;54.10;;;;;;5065460;28;20206;-80
2022/05/29 03:15:48;;;;;;;4.10;2.47;;;13.70;54.50;;;;;;5067867;28;20266;-81
2022/05/29 03:18:29;;;;;;;4.27;2.60;;;13.80;54.30;;;;;;5056848;28;20203;-79
2022/05/29 03:21:02;;;;;;;7.07;2.70;;;13.90;54.60;;;;;;5067919;28;20233;-80
2022/05/29 03:23:40;;;;;;;5.03;2.57;;;14.00;54.40;;;;;;5071371;28;20187;-80
2022/05/29 03:26:15;;;;;;;3.63;2.73;;;14.20;53.90;;;;;;5061984;28;20184;-79
2022/05/29 03:28:47;;;;;;;4.40;2.57;;;14.10;54.20;;;;;;5060091;28;20730;-78
2022/05/29 03:31:18;;;;;;;5.03;2.57;;;14.10;54.30;;;;;;5063586;28;20204;-79
2022/05/29 03:33:47;;;;;;;4.60;2.60;;;14.00;54.90;;;;;;5062272;28;20180;-80
2022/05/29 03:36:15;;;;;;;4.40;2.57;;;14.10;54.50;;;;;;5067469;28;20599;-79
2022/05/29 03:38:42;;;;;;;4.23;2.50;;;14.00;55.00;;;;;;5070305;28;20208;-79
2022/05/29 03:41:34;;;;;;;4.27;2.70;;;14.00;55.00;;;;;;5063832;28;20207;-80
2022/05/29 03:44:00;;;;;;;4.87;2.97;;;14.00;55.20;;;;;;5055185;28;20242;-79
2022/05/29 03:46:25;;;;;;;6.03;2.77;;;14.00;55.10;;;;;;5060550;28;20222;-79
2022/05/29 03:48:51;;;;;;;5.77;3.00;;;14.00;56.00;;;;;;5066176;28;20243;-80
2022/05/29 03:51:17;;;;;;;4.33;2.40;;;13.80;56.80;;;;;;5066344;28;20211;-79
2022/05/29 03:53:43;;;;;;;4.53;2.60;;;13.70;58.20;;;;;;5062957;28;20187;-79
2022/05/29 03:56:09;;;;;;;5.67;2.57;;;13.70;59.40;;;;;;5059430;28;20191;-79
2022/05/29 03:58:34;;;;;;;4.93;2.60;;;13.60;60.40;;;;;;5065211;28;20241;-79
2022/05/29 04:01:00;;;;;;;4.17;2.53;;;13.50;61.30;;;;;;5066197;28;20571;-79
2022/05/29 04:03:26;;;;;;;5.97;2.80;;;13.60;61.70;;;;;;5043592;28;20191;-79
2022/05/29 04:05:52;;;;;;;5.97;3.20;;;13.60;62.00;;;;;;5051635;28;20272;-79
2022/05/29 04:13:46;;;;;;;4.27;2.70;;;13.70;62.80;;;;;;5068185;28;20238;-79
2022/05/29 04:16:14;;;;;;;6.33;2.97;;;13.70;63.50;;;;;;5066148;28;20604;-79
2022/05/29 04:18:39;;;;;;;4.43;3.03;;;13.70;63.30;;;;;;5059315;28;20210;-80
2022/05/29 04:21:06;;;;;;;6.07;3.23;;;13.70;63.00;;;;;;5056262;28;20228;-81
2022/05/29 04:23:32;;;;;;;5.63;3.10;;;13.50;63.10;;;;;;5073887;28;20745;-80
2022/05/29 04:25:57;;;;;;;4.60;3.03;;;13.40;64.10;;;;;;5074257;28;20193;-81
2022/05/29 04:28:23;;;;;;;5.90;3.13;;;13.50;63.20;;;;;;5074710;28;20661;-79
2022/05/29 04:30:49;;;;;;;5.40;3.10;;;13.50;63.10;;;;;;5067654;28;20889;-79
2022/05/29 04:33:15;;;;;;;7.87;3.27;;;13.60;63.10;;;;;;5070927;28;20217;-78
2022/05/29 04:35:49;;;;;;;5.43;3.30;;;13.60;62.50;;;;;;5063684;28;20192;-79
2022/05/29 04:38:16;;;;;;;5.50;3.00;;;13.70;63.00;;;;;;5062520;28;20268;-79
2022/05/29 04:40:43;;;;;;;5.50;2.87;;;13.80;62.40;;;;;;5069631;28;20254;-79
2022/05/29 04:43:10;;;;;;;4.70;2.77;;;14.00;62.00;;;;;;5047097;28;20280;-80
2022/05/29 04:45:38;;;;;;;4.80;3.43;;;14.10;61.40;;;;;;5069991;28;20176;-79
2022/05/29 04:48:05;;;;;;;2.93;2.63;;;14.20;60.60;;;;;;5067976;28;20227;-80
2022/05/29 04:50:30;;;;;;;5.80;2.90;;;14.30;60.20;;;;;;5054122;28;20231;-80
2022/05/29 04:52:56;;;;;;;6.40;2.60;;;14.40;59.70;;;;;;5067251;28;20622;-81
2022/05/29 04:55:22;;;;;;;6.57;2.90;;;14.50;59.30;;;;;;5070532;28;20561;-79
2022/05/29 04:57:48;;;;;;;5.00;3.03;;;14.40;59.20;;;;;;5071544;28;20742;-80
2022/05/29 05:00:14;;;;;;;6.63;3.17;;;14.40;59.90;;;;;;5062995;28;20236;-79
2022/05/29 05:02:40;;;;;;;5.63;3.17;;;14.40;59.60;;;;;;5064980;28;20196;-79
2022/05/29 05:05:06;;;;;;;5.80;3.20;;;14.40;60.40;;;;;;5059149;28;20186;-79
2022/05/29 05:07:31;;;;;;;4.93;3.00;;;14.20;59.90;;;;;;5068304;28;20192;-80
2022/05/29 05:09:57;;;;;;;6.50;3.40;;;14.10;60.00;;;;;;5073768;28;20259;-79
2022/05/29 05:12:23;;;;;;;7.40;3.57;;;13.80;59.80;;;;;;5069370;28;20557;-80
2022/05/29 05:14:49;;;;;;;3.27;2.87;;;13.80;60.40;;;;;;5067294;28;20191;-79
2022/05/29 05:17:14;;;;;;;4.53;3.30;;;13.60;60.90;;;;;;5073644;28;20498;-79
2022/05/29 05:19:40;;;;;;;5.77;3.00;;;13.70;60.80;;;;;;5075565;28;20759;-79
2022/05/29 05:22:08;;;;;;;9.10;3.20;;;13.60;60.70;;;;;;5064153;28;20194;-79
2022/05/29 05:24:37;;;;;;;5.30;2.80;;;13.50;60.80;;;;;;5070118;28;20274;-80
2022/05/29 05:27:03;;;;;;;7.97;3.37;;;13.30;63.40;;;;;;5070110;28;20196;-80
2022/05/29 05:29:29;;;;;;;9.27;3.30;;;13.30;62.40;;;;;;5073938;28;20652;-79
2022/05/29 05:31:54;;;;;;;6.60;2.90;;;13.20;62.30;;;;;;5074653;28;20191;-79
2022/05/29 05:34:20;;;;;;;7.03;3.53;;;13.30;62.00;;;;;;5067268;28;20249;-79
2022/05/29 05:36:46;;;;;;;8.53;3.60;;;13.30;61.80;;;;;;5074573;28;20222;-79
2022/05/29 05:39:12;;;;;;;7.53;3.20;;;13.30;61.30;;;;;;5074459;28;20217;-80
2022/05/29 05:41:37;;;;;;;10.03;3.60;;;13.10;62.30;;;;;;5065940;28;20193;-79
2022/05/29 05:44:03;;;;;;;6.50;2.80;;;13.10;63.10;;;;;;5066056;28;20181;-79
2022/05/29 05:46:29;;;;;;;4.90;2.90;;;13.10;63.40;;;;;;5069254;28;20188;-80
2022/05/29 05:48:57;;;;;;;7.23;3.67;;;12.90;67.40;;;;;;5070576;28;20210;-79
2022/05/29 05:51:23;;;;;;;5.83;3.30;;;13.00;68.00;;;;;;5066542;28;20208;-80
2022/05/29 05:53:49;;;;;;;4.60;2.93;;;13.10;69.10;;;;;;5070573;28;20266;-79
2022/05/29 05:56:17;;;;;;;5.33;3.10;;;13.00;71.10;;;;;;5068287;28;20279;-80
2022/05/29 05:58:43;;;;;;;7.13;3.50;;;13.20;72.80;;;;;;5065470;28;20219;-79
2022/05/29 06:01:15;;;;;;;7.37;3.47;;;13.30;72.60;;;;;;5071238;28;20203;-79
2022/05/29 06:03:42;;;;;;;4.73;2.83;;;13.30;75.20;;;;;;5073970;28;20194;-79
2022/05/29 06:06:08;;;;;;;5.47;3.40;;;13.30;72.50;;;;;;5073674;28;20189;-79
2022/05/29 06:08:34;;;;;;;4.93;2.80;;;13.10;73.70;;;;;;5072323;28;20198;-79
2022/05/29 06:11:00;;;;;;;3.67;2.93;;;13.20;72.90;;;;;;5081535;28;20218;-79
2022/05/29 06:13:26;;;;;;;6.43;3.10;;;13.30;75.40;;;;;;5072817;28;20194;-79
2022/05/29 06:15:51;;;;;;;6.17;3.03;;;13.40;73.50;;;;;;5073352;28;20254;-79
2022/05/29 06:18:18;;;;;;;5.30;2.87;;;13.50;73.30;;;;;;5071930;28;20210;-79
2022/05/29 06:20:44;;;;;;;4.53;3.33;;;13.50;71.70;;;;;;5046610;28;20222;-80
2022/05/29 06:23:11;;;;;;;6.10;3.67;;;13.60;71.40;;;;;;5072731;28;20187;-79
2022/05/29 06:25:41;;;;;;;6.50;2.97;;;13.70;71.00;;;;;;5070340;28;20691;-79
2022/05/29 06:28:08;;;;;;;5.23;3.03;;;13.90;71.00;;;;;;5073492;28;20177;-80
2022/05/29 06:30:35;;;;;;;6.17;2.80;;;14.00;69.30;;;;;;5037918;28;20220;-80
2022/05/29 06:33:01;;;;;;;5.53;2.83;;;14.10;68.80;;;;;;5071842;28;20240;-80
2022/05/29 06:35:27;;;;;;;6.03;3.37;;;14.20;67.00;;;;;;5072003;28;20571;-80
2022/05/29 06:37:53;;;;;;;8.27;3.40;;;14.20;66.30;;;;;;5071623;28;20208;-79
2022/05/29 06:40:19;;;;;;;4.37;3.07;;;14.20;65.80;;;;;;5068453;28;20283;-80
2022/05/29 06:42:45;;;;;;;4.73;2.90;;;14.30;66.00;;;;;;5072799;28;20187;-80
2022/05/29 06:45:13;;;;;;;6.57;3.63;;;14.60;65.70;;;;;;5047393;28;20225;-80
2022/05/29 06:47:39;;;;;;;5.80;3.17;;;14.70;65.10;;;;;;5068703;28;20661;-80
2022/05/29 06:50:07;;;;;;;5.80;3.17;;;14.80;65.70;;;;;;5043576;28;20238;-80
2022/05/29 06:52:33;;;;;;;6.67;3.37;;;14.60;64.90;;;;;;5058806;28;20195;-83
2022/05/29 06:55:00;;;;;;;8.23;3.40;;;14.30;68.30;;;;;;5046015;28;20195;-80
2022/05/29 06:57:43;;;;;;;6.97;3.37;;;14.30;68.70;;;;;;5076349;28;20193;-79
2022/05/29 07:08:33;;;;;;;4.30;3.23;;;14.50;70.60;;;;;;5070840;28;20206;-80
2022/05/29 07:11:05;;;;;;;10.57;3.87;;;14.60;70.30;;;;;;5084049;28;20585;-79
2022/05/29 07:13:31;;;;;;;7.47;3.70;;;14.40;73.50;;;;;;5060646;28;20586;-82
2022/05/29 07:15:58;;;;;;;8.27;3.73;;;14.30;71.30;;;;;;5076004;28;20599;-80
2022/05/29 07:18:23;;;;;;;8.90;4.17;;;14.30;75.70;;;;;;5074800;28;20215;-82
2022/05/29 07:20:49;;;;;;;8.70;3.23;;;14.20;74.90;;;;;;5075329;28;20711;-81
2022/05/29 07:23:15;;;;;;;4.97;2.77;;;14.10;75.50;;;;;;5075755;28;20608;-81
2022/05/29 07:25:42;;;;;;;7.77;3.10;;;14.00;78.10;;;;;;5068597;28;20190;-82
2022/05/29 07:28:08;;;;;;;5.50;3.20;;;14.00;78.30;;;;;;5068882;28;20225;-82
2022/05/29 07:30:34;;;;;;;5.63;3.13;;;14.00;79.70;;;;;;5076527;28;20268;-82
2022/05/29 07:33:03;;;;;;;6.27;3.40;;;14.00;78.80;;;;;;5033730;28;20273;-82
2022/05/29 07:35:29;;;;;;;4.27;3.17;;;14.00;80.00;;;;;;5074956;28;20193;-84
2022/05/29 07:37:56;;;;;;;6.30;3.40;;;14.00;81.70;;;;;;5068563;28;20211;-82
2022/05/29 07:40:23;;;;;;;6.63;3.17;;;14.10;84.50;;;;;;5074199;28;20212;-82
2022/05/29 07:45:32;;;;;;;5.77;3.17;;;14.10;86.30;;;;;;5075412;28;20192;-82
2022/05/29 07:47:58;;;;;;;5.40;3.07;;;14.00;85.70;;;;;;5077849;28;20196;-83
2022/05/29 07:50:25;;;;;;;7.43;2.90;;;13.90;85.40;;;;;;5071556;28;20520;-82
2022/05/29 07:52:52;;;;;;;5.30;2.87;;;13.70;82.90;;;;;;5057688;28;20228;-82
2022/05/29 07:55:18;;;;;;;7.63;3.87;;;13.70;85.50;;;;;;5074627;28;20188;-83
2022/05/29 07:57:46;;;;;;;6.47;3.23;;;13.80;83.50;;;;;;5067152;28;20575;-82
2022/05/29 08:00:16;;;;;;;4.97;3.10;;;13.80;84.30;;;;;;5073282;28;20201;-82
2022/05/29 08:02:41;;;;;;;5.80;3.10;;;13.80;84.00;;;;;;5070771;28;20274;-83
2022/05/29 08:05:10;;;;;;;4.30;2.73;;;13.60;85.70;;;;;;5072710;28;20226;-83
2022/05/29 08:07:36;;;;;;;3.80;2.80;;;13.60;85.10;;;;;;5073088;28;20216;-82
2022/05/29 08:10:04;;;;;;;6.87;3.00;;;13.60;84.70;;;;;;5076779;28;20199;-82
2022/05/29 08:12:29;;;;;;;4.93;2.90;;;13.70;84.40;;;;;;5073362;28;20187;-82
2022/05/29 08:14:55;;;;;;;3.17;2.53;;;13.60;86.80;;;;;;5053698;28;20191;-82
2022/05/29 08:17:21;;;;;;;6.50;3.13;;;13.60;89.90;;;;;;5073952;28;20322;-82
2022/05/29 08:19:47;;;;;;;6.77;2.87;;;13.80;87.90;;;;;;5069899;28;20262;-82
2022/05/29 08:22:12;;;;;;;3.07;2.60;;;13.90;86.50;;;;;;5071823;28;20642;-81
2022/05/29 08:32:59;;;;;;;4.83;3.33;;;14.10;86.40;;;;;;5066962;28;20201;-82
2022/05/29 08:35:25;;;;;;;3.73;2.73;;;14.20;83.30;;;;;;5058389;28;20299;-90
2022/05/29 08:37:51;;;;;;;3.07;2.57;;;14.10;82.80;;;;;;5075599;28;20214;-81
2022/05/29 08:40:17;;;;;;;3.47;2.70;;;14.10;84.50;;;;;;5068633;28;20199;-82
2022/05/29 08:42:42;;;;;;;4.97;2.57;;;13.90;81.80;;;;;;5060779;28;20586;-84
2022/05/29 08:45:12;;;;;;;4.47;2.53;;;14.00;82.10;;;;;;5072257;28;20195;-82
2022/05/29 08:47:39;;;;;;;4.87;2.60;;;14.00;84.00;;;;;;5062686;28;20188;-83
2022/05/29 08:50:10;;;;;;;3.60;2.40;;;14.10;82.60;;;;;;5053725;28;20216;-81
2022/05/29 08:52:53;;;;;;;2.17;1.97;;;14.40;83.60;;;;;;5071624;28;20258;-81
2022/05/29 08:55:28;;;;;;;2.60;2.37;;;14.60;79.50;;;;;;5073169;28;20459;-80
2022/05/29 08:58:06;;;;;;;2.50;2.30;;;14.60;80.20;;;;;;5070940;28;20231;-81
2022/05/29 09:01:01;;;;;;;3.30;2.70;;;14.70;79.20;;;;;;5070132;28;20204;-81
2022/05/29 09:03:41;;;;;;;5.23;2.53;;;14.60;79.20;;;;;;5064507;28;20174;-81
2022/05/29 09:06:14;;;;;;;4.57;2.57;;;14.50;75.90;;;;;;5066472;28;20187;-82
2022/05/29 09:09:04;;;;;;;4.43;2.47;;;14.50;75.30;;;;;;5069969;28;20188;-81
2022/05/29 09:11:54;;;;;;;4.10;2.70;;;14.60;77.00;;;;;;5072748;28;20200;-80
2022/05/29 09:14:50;;;;;;;6.63;2.90;;;14.50;77.60;;;;;;5066585;28;20579;-81
2022/05/29 09:17:52;;;;;;;3.30;2.50;;;14.60;75.20;;;;;;5053884;28;20531;-81
2022/05/29 09:20:39;;;;;;;3.00;2.70;;;14.70;77.10;;;;;;5067886;28;20296;-81
2022/05/29 09:23:07;;;;;;;3.13;2.40;;;14.70;76.40;;;;;;5069106;28;20184;-81
2022/05/29 09:25:44;;;;;;;2.37;2.17;;;14.70;72.40;;;;;;5067037;28;20186;-82
2022/05/29 09:28:16;;;;;;;3.93;2.40;;;14.70;73.10;;;;;;5067774;28;20200;-82
2022/05/29 09:30:42;;;;;;;2.73;2.53;;;14.70;73.00;;;;;;5061960;28;20251;-80
2022/05/29 09:33:20;;;;;;;4.47;2.33;;;14.80;72.70;;;;;;5053095;28;20280;-81
2022/05/29 09:36:14;;;;;;;3.53;2.63;;;14.80;69.60;;;;;;5074546;28;20186;-81
2022/05/29 09:38:52;;;;;;;4.70;2.73;;;14.90;68.90;;;;;;5066027;28;20302;-81
2022/05/29 09:41:28;;;;;;;3.97;2.77;;;14.70;70.20;;;;;;5068029;28;20223;-81
2022/05/29 09:44:19;;;;;;;4.87;3.10;;;14.60;68.70;;;;;;5051330;28;20188;-81
2022/05/29 09:46:48;;;;;;;3.87;2.60;;;14.60;72.00;;;;;;5071981;28;20189;-83
2022/05/29 09:49:49;;;;;;;6.67;2.90;;;14.60;72.50;;;;;;5056576;28;20191;-80
2022/05/29 09:52:37;;;;;;;4.43;2.70;;;14.70;73.00;;;;;;5065570;28;20178;-81
2022/05/29 09:55:25;;;;;;;6.57;2.67;;;14.90;70.30;;;;;;5066386;28;20546;-80
2022/05/29 09:58:01;;;;;;;2.73;2.23;;;15.50;65.50;;;;;;5062326;28;20242;-80
2022/05/29 10:00:51;;;;;;;2.80;2.30;;;15.70;56.60;;;;;;5074084;28;20232;-79
2022/05/29 10:03:36;;;;;;;4.07;2.47;;;15.90;64.10;;;;;;5068702;28;20652;-80
2022/05/29 10:06:14;;;;;;;2.70;2.30;;;15.90;58.70;;;;;;5064746;28;20247;-81
2022/05/29 10:08:40;;;;;;;4.33;2.30;;;16.10;61.00;;;;;;5074570;28;20183;-80
2022/05/29 10:11:32;;;;;;;3.23;1.83;;;16.60;57.40;;;;;;5068147;28;20215;-79
2022/05/29 10:14:01;;;;;;;2.90;2.40;;;16.80;54.70;;;;;;5066721;28;20199;-79
2022/05/29 10:16:39;;;;;;;3.17;2.17;;;16.90;52.60;;;;;;5065241;28;20542;-80
2022/05/29 10:19:10;;;;;;;3.20;2.30;;;17.30;52.70;;;;;;5069582;28;20226;-82
2022/05/29 10:21:54;;;;;;;3.00;2.20;;;17.40;51.20;;;;;;5069743;28;20226;-81
2022/05/29 10:24:37;;;;;;;3.97;2.20;;;17.60;52.20;;;;;;5053852;28;20202;-79
2022/05/29 10:27:12;;;;;;;2.33;1.83;;;17.90;48.30;;;;;;5065395;28;20247;-80
2022/05/29 10:29:40;;;;;;;3.70;2.60;;;17.80;49.00;;;;;;5063611;28;20800;-79
2022/05/29 10:32:09;;;;;;;2.33;2.00;;;17.80;46.10;;;;;;5072137;28;20210;-79
2022/05/29 10:34:40;;;;;;;3.10;2.27;;;17.90;46.00;;;;;;5070953;28;20875;-80
2022/05/29 10:37:44;;;;;;;3.03;1.93;;;18.20;46.60;;;;;;5072539;28;20560;-79
2022/05/29 10:40:25;;;;;;;3.77;2.10;;;18.30;45.10;;;;;;5057887;28;20216;-80
2022/05/29 10:42:54;;;;;;;2.90;2.53;;;18.70;44.40;;;;;;5066445;28;20188;-81
2022/05/29 10:45:24;;;;;;;2.97;2.20;;;18.80;43.40;;;;;;5062105;28;20186;-80
2022/05/29 10:48:01;;;;;;;4.38;2.38;;;18.90;46.10;;;;;;5074320;28;20183;-80
2022/05/29 10:51:01;;;;;;;4.93;2.50;;;19.20;43.30;;;;;;5073889;28;20258;-81
2022/05/29 10:53:48;;;;;;;4.32;2.67;;;19.10;42.10;;;;;;5076908;28;20266;-81
2022/05/29 10:56:41;;;;;;;3.28;2.47;;;19.10;42.30;;;;;;5073452;28;20187;-79
2022/05/29 10:59:36;;;;;;;3.35;2.38;;;19.40;42.70;;;;;;5063461;28;20208;-80
2022/05/29 11:05:35;;;;;;;4.78;2.25;;;19.00;42.10;;;;;;5066975;28;20710;-81
2022/05/29 11:08:52;;;;;;;3.53;1.98;;;18.80;43.40;;;;;;5062822;28;20189;-81
2022/05/29 11:11:37;;;;;;;2.95;2.40;;;19.00;40.70;;;;;;5036868;28;20317;-81
2022/05/29 11:14:02;;;;;;;3.63;2.50;;;19.40;42.40;;;;;;5064524;28;20346;-81
2022/05/29 11:16:46;;;;;;;3.92;2.55;;;19.80;40.00;;;;;;5066060;28;20654;-80
2022/05/29 11:19:31;;;;;;;4.65;2.63;;;20.70;38.90;;;;;;5066074;28;20207;-78
2022/05/29 11:22:15;;;;;;;5.07;2.65;;;20.30;37.90;;;;;;5062880;28;20217;-79
2022/05/29 11:24:49;;;;;;;4.30;2.30;;;18.90;39.70;;;;;;5058327;28;20184;-78
2022/05/29 11:27:27;;;;;;;2.65;2.35;;;18.60;42.80;;;;;;5068870;28;20547;-80
2022/05/29 11:30:07;;;;;;;2.77;2.30;;;18.60;42.20;;;;;;5065100;28;20216;-79
2022/05/29 11:32:39;;;;;;;3.83;2.40;;;18.40;40.60;;;;;;5060487;28;20667;-80
2022/05/29 11:35:24;;;;;;;4.93;2.30;;;18.30;41.60;;;;;;5064343;28;20191;-82
2022/05/29 11:38:00;;;;;;;3.63;2.20;;;18.20;41.60;;;;;;5061220;28;20210;-80
2022/05/29 11:40:33;;;;;;;3.90;2.42;;;18.40;40.50;;;;;;5067759;28;20204;-80
2022/05/29 11:43:24;;;;;;;3.95;2.33;;;18.30;40.50;;;;;;5058860;28;20193;-79
2022/05/29 11:52:06;;;;;;;3.35;2.33;;;19.00;40.60;;;;;;5061150;28;20207;-79
2022/05/29 11:54:43;;;;;;;3.83;2.40;;;19.50;39.70;;;;;;5062400;28;20275;-79
2022/05/29 11:57:27;;;;;;;2.58;2.22;;;20.50;39.20;;;;;;5063130;28;20684;-80
2022/05/29 11:59:57;;;;;;;2.83;2.25;;;21.10;36.50;;;;;;5068738;28;20207;-80
2022/05/29 12:02:48;;;;;;;3.33;2.30;;;21.30;35.60;;;;;;5066340;28;20590;-80
2022/05/29 12:05:19;;;;;;;3.10;2.42;;;21.90;36.40;;;;;;5052292;28;20180;-80
2022/05/29 12:08:09;;;;;;;3.20;2.88;;;22.00;35.60;;;;;;5068390;28;20746;-81
2022/05/29 12:10:53;;;;;;;4.85;2.90;;;21.90;35.30;;;;;;5054501;28;20272;-79
2022/05/29 12:13:24;;;;;;;3.90;2.47;;;20.60;39.10;;;;;;5068125;28;20259;-80
2022/05/29 12:15:57;;;;;;;4.20;2.60;;;20.20;38.50;;;;;;5066097;28;20188;-79
2022/05/29 12:18:31;;;;;;;4.70;2.95;;;20.50;38.70;;;;;;5067040;28;20209;-80
2022/05/29 12:21:01;;;;;;;5.50;2.72;;;20.30;39.30;;;;;;5062038;28;20263;-79
2022/05/29 12:23:26;;;;;;;4.15;2.80;;;20.60;38.40;;;;;;5044921;28;20200;-80
2022/05/29 12:26:01;;;;;;;3.13;2.65;;;20.90;37.10;;;;;;5066971;28;20507;-80
2022/05/29 12:28:43;;;;;;;6.13;3.40;;;20.50;37.70;;;;;;5064509;28;20274;-79
2022/05/29 12:31:42;;;;;;;2.90;2.53;;;21.00;37.00;;;;;;5065097;28;20208;-79
2022/05/29 12:34:20;;;;;;;3.38;2.55;;;20.80;36.90;;;;;;5038060;28;20269;-79
2022/05/29 12:36:53;;;;;;;4.43;2.83;;;20.80;38.40;;;;;;5069521;28;20270;-79
2022/05/29 12:40:04;;;;;;;3.60;2.72;;;20.40;36.90;;;;;;5064151;28;20689;-80
2022/05/29 12:42:41;;;;;;;2.67;2.45;;;19.70;36.90;;;;;;5070068;28;20342;-79
2022/05/29 12:45:25;;;;;;;4.65;3.00;;;20.20;35.90;;;;;;5074692;28;20180;-79
2022/05/29 12:48:19;;;;;;;4.95;2.40;;;20.60;34.40;;;;;;5069928;28;20283;-81
2022/05/29 12:51:23;;;;;;;4.13;2.67;;;21.50;33.30;;;;;;5074977;28;20208;-79
2022/05/29 12:54:00;;;;;;;4.13;2.67;;;22.40;31.50;;;;;;4996498;28;20237;-79
2022/05/29 12:57:07;;;;;;;2.85;2.47;;;22.30;31.30;;;;;;5004553;28;20196;-79
2022/05/29 13:00:01;;;;;;;3.30;2.40;;;21.90;33.70;;;;;;5039101;28;20258;-79
2022/05/29 13:03:02;;;;;;;4.05;2.33;;;22.20;31.10;;;;;;5063875;28;20183;-79
2022/05/29 13:05:30;;;;;;;3.45;2.45;;;22.40;31.40;;;;;;5069284;28;20182;-80
2022/05/29 13:08:42;;;;;;;4.45;2.85;;;22.60;30.90;;;;;;5073180;28;20214;-80
2022/05/29 13:11:10;;;;;;;3.08;2.65;;;22.20;29.40;;;;;;5053950;28;20322;-79
2022/05/29 13:13:43;;;;;;;4.80;2.40;;;21.30;30.50;;;;;;5055906;28;20207;-80
2022/05/29 13:16:28;;;;;;;5.80;2.47;;;20.50;31.00;;;;;;5075206;28;20184;-79
2022/05/29 13:19:21;;;;;;;4.85;2.42;;;20.00;32.50;;;;;;5073113;28;20262;-80
2022/05/29 13:22:04;;;;;;;3.85;2.50;;;20.20;33.50;;;;;;5075936;28;20196;-79
2022/05/29 13:24:45;;;;;;;4.68;3.00;;;20.20;34.40;;;;;;5079027;28;20183;-79
2022/05/29 13:27:29;;;;;;;5.65;3.95;;;20.40;35.50;;;;;;5072488;28;20191;-79
2022/05/29 13:29:57;;;;;;;3.22;2.92;;;20.30;34.20;;;;;;5072210;28;20234;-80
2022/05/29 13:32:31;;;;;;;4.57;2.72;;;20.40;34.20;;;;;;5067544;28;20270;-80
2022/05/29 13:35:03;;;;;;;3.85;2.53;;;21.30;33.10;;;;;;5048562;28;20183;-80
2022/05/29 13:37:46;;;;;;;2.83;2.53;;;22.00;30.40;;;;;;5070419;28;20248;-81
2022/05/29 13:40:21;;;;;;;5.10;2.90;;;22.30;30.40;;;;;;5067356;28;20215;-81
2022/05/29 13:43:15;;;;;;;4.07;2.58;;;23.10;29.10;;;;;;5081149;28;20265;-81
2022/05/29 13:45:43;;;;;;;4.88;2.72;;;23.50;28.80;;;;;;5072246;28;20186;-81
2022/05/29 13:48:19;;;;;;;3.85;2.60;;;23.50;27.50;;;;;;5063699;28;20250;-80
2022/05/29 13:51:10;;;;;;;4.32;2.83;;;23.90;27.80;;;;;;5064002;28;20209;-80
2022/05/29 13:53:51;;;;;;;2.95;2.55;;;23.90;26.80;;;;;;5040269;28;20192;-80
2022/05/29 13:56:18;;;;;;;2.90;2.40;;;24.00;27.40;;;;;;5075864;28;20217;-81
2022/05/29 14:05:18;;;;;;;4.18;2.65;;;24.40;26.60;;;;;;5002853;28;20236;-81